Hafar Al-Batin, Saudi Arabia
Current Conditions -  °F | °C
As of 8:00 AM on Sunday 26 Oct 2014 (Local Time) from OEPA Reporting Station
Scattered Clouds Scattered Clouds  
Wind Chill: 73°   Ceiling: Unl
Heat Index: 73°   Visibility: 6mi
Dew Point: 57°   Wind: 7mph
Humidity: 57%   Direction: 60°ENE
Pressure: 30.03"   Gusts: NA
Location:  28.43°N, 45.96°E
Report Text: OEPA 260500Z 06006KT 9999 SCT035 23/14 Q1017 NOSIG
Loading
Personal Weather Stations






























Interactive Weather Map
Tropical Storm Tracking
New forecast layout! Learn more

10-Day Weather Forecast

Advertisements
Track Severe Weather on mobile